« 時々豪雨 成田国際空港 2014/6/27 fri | トップページ | 週報 富山空港 2014/7/2 wed »

2014/07/02

定点 富山空港 2014/7/2 wed

あっと言う間に7月、一年の折り返し点通過だ。梅雨の中にあるが、ここしばらくは涼しい晴天が続いている。

20140702_rjnt_00tanabata

空港ロビーは、毎年恒例の七夕。

RJNT 020100Z 36005KT 310V040 9999 FEW020 26/18 Q1011

20140702_rjnt_01ja810a

今日も、サークリング劇場です。

20140702_rjnt_02ja810a

20140702_rjnt_03ja810a

20140702_rjnt_04ja810a

ファィナルは、こんな感じ。

20140702_rjnt_05ja810a

ANA883 RJTT-RJNT JA810A B787-8

20140702_rjnt_06b2296

一方、今日は後釜となった南方は、余裕で20ランディング

20140702_rjnt_07b2296

CSN613 ZYTL-RJNT B-2296 A319-132

20140702_rjnt_08b2296

空港出張所庁舎改修工事中。あわせてAPDU装置設置も行われる。

20140702_rjnt_09b2296

CSN614 RJNT-ZYTL B-2296 A319-132

20140702_rjnt_10ja810a

サザンにプッシュを待たされ、朝日にタクシー待たされ・・

20140702_rjnt_11ja01ap

JA01AP MD900 ASP ダイナ待ちの間に離陸

20140702_rjnt_12b18652

今日もダイナ君は、やってくれます。RW02と言っているのに、なかなかブレイクせず、おまけにファィナルで20やる気満々だったが、787がイライラしながら待機中。スレッショルドで90度ブレイク。

20140702_rjnt_13ja810a

きっと、「早くブレイクしろよー」と呟いた・・ だろう

20140702_rjnt_14ja810a

ANA886 RJNT-RJTT JA810A B787-8

20140702_rjnt_15b18652

20140702_rjnt_16b18652

20140702_rjnt_17b18652

CAL170 RCTP-RJNT B-18652 B737-8Q8

RJNT 020300Z 34007KT 270V020 9999 FEW025 26/18 Q1010

20140702_rjnt_18b18652

CAL171 RJNT-RCTP B-18652 B737-8Q8

20140702_rjnt_19ja8504

20140702_rjnt_20ja8504

ADO120 RJCC-RJNT JA8504 B737-54K

20140702_rjnt_21ja6769

JA6769 A109K2 富山県警察 合間に離陸

20140702_rjnt_22ja8504

ゆっくりタクシーバックしてくる。

20140702_rjnt_23ja6193

JA6193 B206B AAK

RJNT 020500Z 01011KT 9999 FEW025 26/19 Q1009

20140702_rjnt_24ja8504

20140702_rjnt_25ja8504

ADO121 RJNT-RJCC JA8504 B737-54K

20140702_rjnt_26ja602a

モヒカン君も回りマース。

20140702_rjnt_27ja602a

20140702_rjnt_28ja602a

ANA885 RJTT-RJNT JA602A B767-381

20140702_rjnt_29ja6769

JA6769 A109K2 富山県警察 合間に着陸

20140702_rjnt_30ja602a

20140702_rjnt_31ja602a

いつまで見れるかなぁ? 今日は、ここまでで離脱。ぎょ、週報できてない。

RJTT-RJNT
ANA     /882 JA8288
ANA881/884 JA8322
ANA883/886 JA810A
ANA885/888 JA602A
ANA887/890 JA824A
ANA889/892 JA819A
ANA891       JA8669

RJCC-RJNT
ADO120/121 JA8504

ZYTL-RJNT
CSN613/614 B-2296

RCTP-RJNT
CAL170/171 B-18652

|

« 時々豪雨 成田国際空港 2014/6/27 fri | トップページ | 週報 富山空港 2014/7/2 wed »

富山空港」カテゴリの記事

コメント

コメントを書く



(ウェブ上には掲載しません)


コメントは記事投稿者が公開するまで表示されません。



トラックバック


この記事へのトラックバック一覧です: 定点 富山空港 2014/7/2 wed:

« 時々豪雨 成田国際空港 2014/6/27 fri | トップページ | 週報 富山空港 2014/7/2 wed »